Time;durP1;ratioP1;P1;durP2;ratioP2;P2;SDS_P1;SDS_P2;PMS_P1;PMS_P2;Temp;Humidity;BMP_temperature;BMP_pressure;BME280_temperature;BME280_humidity;BME280_pressure;Samples;Min_cycle;Max_cycle;Signal;HPM_P1;HPM_P2
2023/12/27 00:00:56;;;;;;;29.43;7.60;;;9.20;99.90;;;;;;5056021;28;20996;-76
2023/12/27 00:03:23;;;;;;;15.70;5.00;;;9.10;99.90;;;;;;5052810;28;20511;-76
2023/12/27 00:05:50;;;;;;;13.93;4.50;;;9.10;99.90;;;;;;5055523;28;20556;-77
2023/12/27 00:08:18;;;;;;;20.03;4.93;;;9.00;99.90;;;;;;5055342;28;20513;-76
2023/12/27 00:10:45;;;;;;;13.27;5.07;;;9.00;99.90;;;;;;5053556;28;20477;-77
2023/12/27 00:13:12;;;;;;;13.33;5.17;;;9.10;99.90;;;;;;5057440;28;20586;-77
2023/12/27 00:15:44;;;;;;;24.67;7.37;;;9.00;99.90;;;;;;5054460;28;20482;-76
2023/12/27 00:18:11;;;;;;;13.03;4.67;;;9.00;99.90;;;;;;5054486;28;20474;-77
2023/12/27 00:20:38;;;;;;;18.63;5.40;;;9.00;99.90;;;;;;5044837;28;20478;-77
2023/12/27 00:23:05;;;;;;;18.83;5.90;;;8.90;99.90;;;;;;5062734;28;20538;-76
2023/12/27 00:25:33;;;;;;;9.40;4.50;;;9.00;99.90;;;;;;5034046;28;20543;-76
2023/12/27 00:28:00;;;;;;;10.70;5.53;;;9.00;99.90;;;;;;5035077;28;20492;-77
2023/12/27 00:30:27;;;;;;;7.90;4.80;;;;;;;;;;5040320;28;20476;-75
2023/12/27 00:32:54;;;;;;;19.10;6.20;;;8.90;99.90;;;;;;5045144;28;20507;-76
2023/12/27 00:35:21;;;;;;;11.60;6.13;;;8.90;99.90;;;;;;5037994;28;20559;-76
2023/12/27 00:37:47;;;;;;;11.73;7.03;;;8.90;99.90;;;;;;5027482;28;20597;-76
2023/12/27 00:40:14;;;;;;;15.90;5.80;;;8.90;99.90;;;;;;5049104;28;20550;-75
2023/12/27 00:42:43;;;;;;;18.67;4.90;;;9.00;99.90;;;;;;5054234;28;20566;-76
2023/12/27 00:45:10;;;;;;;10.00;5.07;;;9.00;99.90;;;;;;5055012;28;20479;-76
2023/12/27 00:47:37;;;;;;;10.77;4.67;;;9.00;99.90;;;;;;5054730;28;20573;-76
2023/12/27 00:50:05;;;;;;;16.53;6.30;;;9.10;99.90;;;;;;5055032;28;21275;-76
2023/12/27 00:52:31;;;;;;;15.67;5.87;;;9.20;99.90;;;;;;5055168;28;20471;-76
2023/12/27 00:54:59;;;;;;;13.00;5.40;;;9.10;99.90;;;;;;5059697;28;20558;-75
2023/12/27 00:57:26;;;;;;;18.40;5.87;;;9.10;99.90;;;;;;5053836;28;20485;-76
2023/12/27 00:59:54;;;;;;;16.67;7.23;;;9.10;99.90;;;;;;5053273;28;20566;-77
2023/12/27 01:02:21;;;;;;;16.60;7.40;;;9.10;99.90;;;;;;5054443;28;20960;-76
2023/12/27 01:04:49;;;;;;;15.90;5.77;;;9.10;99.90;;;;;;5035610;28;20479;-78
2023/12/27 01:07:16;;;;;;;14.23;5.60;;;9.20;99.90;;;;;;5035450;28;20799;-77
2023/12/27 01:09:42;;;;;;;31.77;7.13;;;9.20;99.90;;;;;;5033307;28;20724;-77
2023/12/27 01:12:10;;;;;;;8.83;5.63;;;9.30;99.90;;;;;;5033945;28;20571;-77
2023/12/27 01:14:37;;;;;;;20.87;5.73;;;9.30;99.90;;;;;;5043222;28;20479;-77
2023/12/27 01:17:06;;;;;;;22.97;5.80;;;;;;;;;;5054313;28;21163;-75
2023/12/27 01:19:32;;;;;;;15.83;5.73;;;9.30;99.90;;;;;;5054264;28;20510;-75
2023/12/27 01:21:59;;;;;;;10.10;5.70;;;9.30;99.90;;;;;;5055057;28;20570;-75
2023/12/27 01:24:26;;;;;;;9.37;5.47;;;9.20;99.90;;;;;;5051986;28;20588;-76
2023/12/27 01:26:53;;;;;;;15.93;5.87;;;9.10;99.90;;;;;;5057593;28;20566;-76
2023/12/27 01:29:20;;;;;;;31.13;7.03;;;9.10;99.90;;;;;;5053800;28;20566;-76
2023/12/27 01:31:47;;;;;;;15.13;5.27;;;9.10;99.90;;;;;;5053824;28;20487;-77
2023/12/27 01:34:15;;;;;;;18.80;6.60;;;9.10;99.90;;;;;;5055579;28;21802;-78
2023/12/27 01:36:42;;;;;;;12.40;5.50;;;9.10;99.90;;;;;;5053384;28;20479;-77
2023/12/27 01:39:09;;;;;;;14.00;6.53;;;9.00;99.90;;;;;;5057683;28;20750;-76
2023/12/27 01:41:35;;;;;;;20.63;6.80;;;9.00;99.90;;;;;;5051633;28;21228;-76
2023/12/27 01:44:02;;;;;;;17.43;6.43;;;8.90;99.90;;;;;;5055206;28;23165;-76
2023/12/27 01:46:30;;;;;;;20.53;4.67;;;8.90;99.90;;;;;;5054122;28;20533;-75
2023/12/27 01:48:58;;;;;;;9.30;4.80;;;9.10;99.90;;;;;;5050640;28;20537;-76
2023/12/27 01:51:27;;;;;;;13.63;4.47;;;9.30;99.90;;;;;;5054135;28;20514;-76
2023/12/27 01:53:54;;;;;;;6.40;4.60;;;9.30;99.90;;;;;;5053895;28;20570;-75
2023/12/27 01:56:21;;;;;;;6.00;4.07;;;9.40;99.90;;;;;;5053397;28;20918;-76
2023/12/27 01:58:47;;;;;;;20.10;5.10;;;9.30;99.90;;;;;;5053997;28;20485;-77
2023/12/27 02:01:15;;;;;;;13.53;5.20;;;9.30;99.90;;;;;;5054130;28;20566;-77
2023/12/27 02:03:42;;;;;;;15.13;5.17;;;9.30;99.90;;;;;;5054849;28;20477;-77
2023/12/27 02:06:09;;;;;;;13.10;5.87;;;9.30;99.90;;;;;;5052814;28;20467;-76
2023/12/27 02:08:37;;;;;;;7.00;4.77;;;9.20;99.90;;;;;;5051660;28;20927;-76
2023/12/27 02:11:04;;;;;;;8.20;4.40;;;9.20;99.90;;;;;;5054444;28;20600;-76
2023/12/27 02:13:31;;;;;;;14.50;5.40;;;9.20;99.90;;;;;;5054124;28;20562;-76
2023/12/27 02:15:58;;;;;;;11.93;5.40;;;9.30;99.90;;;;;;5044737;28;20561;-76
2023/12/27 02:18:27;;;;;;;11.53;5.47;;;;;;;;;;5062595;28;20558;-75
2023/12/27 02:20:54;;;;;;;14.00;4.33;;;9.30;99.90;;;;;;5053875;28;20515;-76
2023/12/27 02:23:24;;;;;;;23.80;5.90;;;9.30;99.90;;;;;;5049363;28;20475;-76
2023/12/27 02:25:53;;;;;;;19.00;5.57;;;9.30;99.90;;;;;;5052755;28;20566;-75
2023/12/27 02:28:20;;;;;;;9.33;5.00;;;9.30;99.90;;;;;;5051518;28;20577;-75
2023/12/27 02:30:46;;;;;;;8.97;4.87;;;9.10;99.90;;;;;;5053994;28;20587;-76
2023/12/27 02:33:13;;;;;;;8.53;4.63;;;9.10;99.90;;;;;;5053425;28;20532;-76
2023/12/27 02:35:40;;;;;;;21.40;5.43;;;9.10;99.90;;;;;;5054535;28;20483;-77
2023/12/27 02:38:07;;;;;;;13.17;5.00;;;9.20;99.90;;;;;;5053507;28;20482;-77
2023/12/27 02:40:34;;;;;;;17.97;5.50;;;9.30;99.90;;;;;;5051595;28;20501;-76
2023/12/27 02:43:02;;;;;;;7.60;4.10;;;9.30;99.90;;;;;;5053566;28;20566;-76
2023/12/27 02:45:29;;;;;;;14.03;4.80;;;9.30;99.90;;;;;;5053890;28;20490;-77
2023/12/27 02:47:56;;;;;;;13.80;5.83;;;9.40;99.90;;;;;;5052746;28;20582;-76
2023/12/27 02:50:23;;;;;;;12.40;5.10;;;9.30;99.90;;;;;;5052846;28;21304;-76
2023/12/27 02:52:49;;;;;;;15.10;5.13;;;9.30;99.90;;;;;;5054616;28;21020;-75
2023/12/27 02:55:16;;;;;;;17.10;6.17;;;9.30;99.90;;;;;;5055054;28;20499;-74
2023/12/27 02:57:43;;;;;;;7.93;4.20;;;9.30;99.90;;;;;;5053442;28;20503;-75
2023/12/27 03:00:13;;;;;;;24.80;5.70;;;9.20;99.90;;;;;;5053496;28;20559;-76
2023/12/27 03:02:39;;;;;;;9.80;4.57;;;9.20;99.90;;;;;;5052898;28;20561;-75
2023/12/27 03:05:07;;;;;;;10.53;4.10;;;9.10;99.90;;;;;;5050584;28;20558;-75
2023/12/27 03:07:34;;;;;;;6.57;3.90;;;;;;;;;;5053305;28;20556;-76
2023/12/27 03:10:00;;;;;;;17.20;5.73;;;9.10;99.90;;;;;;5056331;28;21093;-76
2023/12/27 03:12:27;;;;;;;11.87;5.20;;;9.00;99.90;;;;;;5057178;28;20899;-75
2023/12/27 03:14:54;;;;;;;20.77;5.07;;;9.00;99.90;;;;;;5058292;28;20927;-75
2023/12/27 03:17:22;;;;;;;16.10;5.30;;;9.00;99.90;;;;;;5063084;28;20486;-75
2023/12/27 03:19:49;;;;;;;9.67;4.13;;;9.00;99.90;;;;;;5056471;28;20712;-75
2023/12/27 03:22:16;;;;;;;10.13;5.13;;;8.90;99.90;;;;;;5061073;28;20483;-75
2023/12/27 03:24:42;;;;;;;11.00;4.40;;;8.90;99.90;;;;;;5056441;28;20570;-75
2023/12/27 03:27:10;;;;;;;10.47;3.47;;;9.00;99.90;;;;;;5058196;28;20566;-75
2023/12/27 03:29:36;;;;;;;17.77;4.30;;;9.00;99.90;;;;;;5058210;28;21110;-76
2023/12/27 03:32:04;;;;;;;8.77;4.37;;;;;;;;;;5057236;28;20572;-76
2023/12/27 03:34:32;;;;;;;55.87;6.17;;;9.00;99.90;;;;;;5057676;28;20470;-75
2023/12/27 03:36:59;;;;;;;7.87;4.60;;;9.00;99.90;;;;;;5058627;28;20481;-74
2023/12/27 03:39:26;;;;;;;18.17;4.00;;;8.90;99.90;;;;;;5055553;28;20514;-74
2023/12/27 03:41:53;;;;;;;24.33;4.80;;;9.00;99.90;;;;;;5058430;28;20540;-74
2023/12/27 03:44:20;;;;;;;8.03;4.67;;;9.00;99.90;;;;;;5058537;28;20567;-74
2023/12/27 03:46:47;;;;;;;9.53;5.17;;;9.00;99.90;;;;;;5061744;28;20471;-75
2023/12/27 03:49:13;;;;;;;14.67;4.30;;;8.90;99.90;;;;;;5063352;28;20586;-74
2023/12/27 03:51:42;;;;;;;14.40;3.80;;;8.90;99.90;;;;;;5062760;28;20521;-74
2023/12/27 03:54:08;;;;;;;4.87;3.23;;;8.90;99.90;;;;;;5062792;28;20558;-73
2023/12/27 03:56:35;;;;;;;5.80;3.60;;;8.90;99.90;;;;;;5062468;28;21165;-75
2023/12/27 03:59:05;;;;;;;13.43;3.60;;;8.90;99.90;;;;;;5061914;28;20486;-75
2023/12/27 04:01:32;;;;;;;10.87;4.57;;;8.90;99.90;;;;;;5059153;28;20471;-75
2023/12/27 04:03:59;;;;;;;27.70;4.93;;;8.90;99.90;;;;;;5062860;28;20872;-75
2023/12/27 04:06:26;;;;;;;11.43;4.50;;;8.90;99.90;;;;;;5062484;28;20575;-77
2023/12/27 04:08:55;;;;;;;38.73;5.67;;;8.90;99.90;;;;;;5061818;28;20511;-77
2023/12/27 04:11:22;;;;;;;15.93;4.67;;;8.80;99.90;;;;;;5062442;28;21027;-77
2023/12/27 04:13:49;;;;;;;17.77;5.87;;;8.80;99.90;;;;;;5060548;28;20478;-78
2023/12/27 04:16:15;;;;;;;21.23;5.70;;;8.70;99.90;;;;;;5058737;28;20575;-76
2023/12/27 04:18:42;;;;;;;8.93;3.60;;;8.80;99.90;;;;;;5062205;28;20832;-77
2023/12/27 04:21:09;;;;;;;15.73;5.13;;;8.80;99.90;;;;;;5062307;28;20551;-77
2023/12/27 04:23:36;;;;;;;22.53;5.27;;;8.80;99.90;;;;;;5061898;28;20562;-77
2023/12/27 04:26:04;;;;;;;5.23;3.23;;;8.90;99.90;;;;;;5062005;28;20562;-77
2023/12/27 04:28:32;;;;;;;7.60;4.17;;;8.90;99.90;;;;;;5062107;28;20537;-77
2023/12/27 04:30:58;;;;;;;12.40;4.50;;;8.80;99.90;;;;;;5061876;28;20554;-78
2023/12/27 04:33:25;;;;;;;7.50;4.87;;;8.90;99.90;;;;;;5060288;28;20550;-78
2023/12/27 04:35:52;;;;;;;8.13;4.10;;;8.80;99.90;;;;;;5062078;28;20571;-79
2023/12/27 04:38:19;;;;;;;7.20;4.10;;;8.80;99.90;;;;;;5049494;28;20566;-78
2023/12/27 04:40:47;;;;;;;14.47;4.40;;;8.80;99.90;;;;;;5061518;28;20487;-78
2023/12/27 04:43:15;;;;;;;45.83;7.20;;;8.70;99.90;;;;;;5062280;28;20490;-79
2023/12/27 04:45:42;;;;;;;8.77;5.00;;;8.60;99.90;;;;;;5062110;28;20483;-78
2023/12/27 04:48:09;;;;;;;15.77;6.63;;;8.60;99.90;;;;;;5059075;28;20550;-78
2023/12/27 04:50:36;;;;;;;16.10;5.03;;;8.70;99.90;;;;;;5059667;28;20486;-78
2023/12/27 04:53:03;;;;;;;11.23;5.70;;;8.70;99.90;;;;;;5060586;28;20510;-77
2023/12/27 04:55:30;;;;;;;10.60;6.23;;;8.70;99.90;;;;;;5059133;28;20543;-79
2023/12/27 04:57:56;;;;;;;23.03;5.47;;;8.70;99.90;;;;;;5058220;28;20502;-78
2023/12/27 05:00:25;;;;;;;20.90;6.73;;;8.70;99.90;;;;;;5058327;28;21401;-80
2023/12/27 05:02:51;;;;;;;20.07;6.07;;;8.70;99.90;;;;;;5061761;28;20560;-81
2023/12/27 05:05:19;;;;;;;16.80;6.00;;;8.70;99.90;;;;;;5045188;28;20524;-81
2023/12/27 05:07:46;;;;;;;13.67;4.97;;;8.70;99.90;;;;;;5059628;28;20479;-81
2023/12/27 05:10:13;;;;;;;18.03;6.20;;;8.70;99.90;;;;;;5060496;28;20665;-79
2023/12/27 05:12:40;;;;;;;8.03;4.33;;;8.70;99.90;;;;;;5061176;28;20569;-81
2023/12/27 05:15:08;;;;;;;17.90;5.90;;;8.70;99.90;;;;;;5060949;28;20522;-81
2023/12/27 05:17:36;;;;;;;39.50;6.50;;;8.80;99.90;;;;;;5060787;28;20551;-80
2023/12/27 05:20:04;;;;;;;13.80;4.47;;;8.80;99.90;;;;;;5061209;28;21195;-81
2023/12/27 05:22:33;;;;;;;19.70;5.57;;;8.90;99.90;;;;;;5060228;28;20491;-81
2023/12/27 05:25:01;;;;;;;32.43;6.13;;;8.90;99.90;;;;;;5066017;28;20489;-83
2023/12/27 05:27:28;;;;;;;13.47;4.77;;;9.00;99.90;;;;;;5059868;28;20588;-82
2023/12/27 05:29:55;;;;;;;14.70;5.10;;;9.10;99.90;;;;;;5061607;28;21239;-81
2023/12/27 05:32:22;;;;;;;13.90;4.23;;;9.30;99.90;;;;;;5048253;28;20474;-79
2023/12/27 05:34:50;;;;;;;17.80;3.37;;;9.30;99.90;;;;;;5060418;28;20475;-82
2023/12/27 05:37:17;;;;;;;12.43;4.33;;;9.30;99.90;;;;;;5058792;28;21802;-80
2023/12/27 05:39:44;;;;;;;15.20;4.33;;;9.30;99.90;;;;;;5057855;28;20572;-83
2023/12/27 05:42:13;;;;;;;7.10;4.10;;;9.30;99.90;;;;;;5060431;28;20894;-82
2023/12/27 05:44:40;;;;;;;10.60;3.63;;;9.30;99.90;;;;;;5060321;28;20474;-81
2023/12/27 05:47:07;;;;;;;12.40;3.80;;;;;;;;;;5059460;28;20486;-81
2023/12/27 05:49:34;;;;;;;9.30;3.50;;;9.40;99.90;;;;;;5059011;28;20560;-82
2023/12/27 05:52:03;;;;;;;49.43;5.67;;;9.50;99.90;;;;;;5057675;28;20550;-82
2023/12/27 05:54:30;;;;;;;8.00;3.30;;;9.60;99.90;;;;;;5060270;28;20487;-81
2023/12/27 05:56:57;;;;;;;6.80;2.93;;;9.60;99.90;;;;;;5060393;28;20573;-82
2023/12/27 05:59:23;;;;;;;17.83;3.73;;;9.70;99.90;;;;;;5058813;28;20529;-83
2023/12/27 06:01:52;;;;;;;4.80;3.13;;;9.60;99.90;;;;;;5054296;28;20575;-83
2023/12/27 06:04:20;;;;;;;11.30;4.00;;;9.60;99.90;;;;;;5059772;28;20759;-83
2023/12/27 06:06:49;;;;;;;9.20;3.47;;;9.60;99.90;;;;;;5058786;28;20482;-82
2023/12/27 06:09:17;;;;;;;8.17;3.57;;;9.60;99.90;;;;;;5059635;28;20479;-83
2023/12/27 06:11:44;;;;;;;11.63;3.77;;;9.70;99.90;;;;;;5060132;28;20571;-83
2023/12/27 06:14:10;;;;;;;17.40;3.90;;;9.80;99.90;;;;;;5058869;28;20510;-81
2023/12/27 06:16:37;;;;;;;5.23;3.23;;;9.90;99.90;;;;;;5059911;28;20506;-84
2023/12/27 06:19:04;;;;;;;7.03;2.83;;;9.90;99.90;;;;;;5058953;28;20487;-79
2023/12/27 06:21:31;;;;;;;6.10;3.90;;;9.90;99.90;;;;;;5051800;28;20525;-81
2023/12/27 06:23:58;;;;;;;10.97;3.13;;;10.00;99.90;;;;;;5065398;28;20564;-82
2023/12/27 06:26:26;;;;;;;42.87;5.00;;;10.00;99.90;;;;;;5058145;28;20554;-80
2023/12/27 06:28:53;;;;;;;4.20;3.10;;;10.10;99.90;;;;;;5056480;28;20512;-81
2023/12/27 06:31:20;;;;;;;10.80;3.43;;;10.10;99.90;;;;;;5060706;28;20503;-81
2023/12/27 06:33:47;;;;;;;20.03;3.97;;;10.20;99.90;;;;;;5059833;28;20544;-80
2023/12/27 06:36:14;;;;;;;8.60;3.10;;;10.10;99.90;;;;;;5060418;28;20510;-81
2023/12/27 06:38:41;;;;;;;8.30;3.00;;;10.00;99.90;;;;;;5058634;28;20570;-81
2023/12/27 06:41:09;;;;;;;14.40;3.50;;;10.00;99.90;;;;;;5061014;28;20483;-81
2023/12/27 06:43:37;;;;;;;5.43;2.60;;;10.00;99.90;;;;;;5060651;28;20511;-81
2023/12/27 06:46:04;;;;;;;5.20;3.27;;;10.00;99.90;;;;;;5063576;28;20475;-78
2023/12/27 06:48:31;;;;;;;13.00;3.37;;;9.90;99.90;;;;;;5062059;28;20547;-79
2023/12/27 06:50:58;;;;;;;10.00;2.90;;;9.90;99.90;;;;;;5054461;28;20567;-80
2023/12/27 06:53:25;;;;;;;18.10;3.80;;;9.80;99.90;;;;;;5042905;28;20826;-80
2023/12/27 06:55:51;;;;;;;5.47;2.90;;;9.80;99.90;;;;;;5059755;28;20564;-79
2023/12/27 06:58:19;;;;;;;9.33;3.83;;;9.70;99.90;;;;;;5049326;28;20566;-80
2023/12/27 07:00:47;;;;;;;33.10;4.50;;;9.50;99.90;;;;;;5058962;28;20472;-81
2023/12/27 07:03:14;;;;;;;8.53;4.87;;;9.50;99.90;;;;;;5054322;28;20511;-80
2023/12/27 07:05:41;;;;;;;18.00;3.80;;;9.40;99.90;;;;;;5045787;28;20889;-81
2023/12/27 07:08:08;;;;;;;8.80;2.93;;;9.50;99.90;;;;;;5046774;28;20479;-81
2023/12/27 07:10:35;;;;;;;4.90;2.70;;;9.60;99.90;;;;;;5055093;28;20904;-80
2023/12/27 07:13:02;;;;;;;5.30;3.17;;;9.70;99.90;;;;;;5052139;28;20557;-80
2023/12/27 07:15:29;;;;;;;3.50;2.27;;;9.80;99.90;;;;;;5041448;28;20507;-80
2023/12/27 07:17:58;;;;;;;10.83;3.20;;;9.90;99.90;;;;;;5054215;28;20553;-80
2023/12/27 07:20:24;;;;;;;9.70;3.60;;;10.00;99.90;;;;;;5046223;28;20571;-79
2023/12/27 07:22:51;;;;;;;11.73;4.73;;;10.10;99.90;;;;;;5061162;28;20570;-81
2023/12/27 07:25:19;;;;;;;6.53;4.40;;;10.10;99.90;;;;;;5055204;28;20952;-81
2023/12/27 07:27:46;;;;;;;8.33;3.23;;;10.20;99.90;;;;;;5042528;28;20504;-82
2023/12/27 07:30:13;;;;;;;7.63;4.20;;;10.20;99.90;;;;;;5042190;28;20507;-81
2023/12/27 07:32:40;;;;;;;12.73;5.60;;;10.30;99.90;;;;;;5042091;28;20503;-79
2023/12/27 07:35:09;;;;;;;95.63;48.43;;;10.30;99.90;;;;;;5054474;28;20483;-79
2023/12/27 07:37:37;;;;;;;8.40;3.93;;;10.30;99.90;;;;;;5048186;28;21000;-81
2023/12/27 07:40:04;;;;;;;19.43;3.30;;;10.00;99.90;;;;;;5049801;28;20829;-81
2023/12/27 07:42:31;;;;;;;10.40;3.20;;;9.90;99.90;;;;;;5048153;28;20502;-80
2023/12/27 07:44:58;;;;;;;6.80;3.23;;;9.90;99.90;;;;;;5040224;28;20496;-80
2023/12/27 07:47:25;;;;;;;11.13;3.67;;;10.00;99.90;;;;;;5041778;28;20554;-79
2023/12/27 07:49:52;;;;;;;12.47;4.03;;;10.10;99.90;;;;;;5042504;28;20484;-79
2023/12/27 07:52:21;;;;;;;12.03;4.00;;;10.10;99.90;;;;;;5042243;28;20549;-79
2023/12/27 07:54:48;;;;;;;10.03;5.00;;;10.20;99.90;;;;;;5040740;28;20483;-79
2023/12/27 07:57:15;;;;;;;18.23;4.97;;;10.30;99.90;;;;;;5041266;28;20571;-79
2023/12/27 07:59:41;;;;;;;33.40;5.90;;;10.30;99.90;;;;;;5038246;28;20922;-80
2023/12/27 08:02:08;;;;;;;7.87;4.40;;;10.20;99.90;;;;;;5042027;28;20492;-79
2023/12/27 08:04:35;;;;;;;6.53;3.70;;;10.30;99.90;;;;;;5040202;28;20567;-79
2023/12/27 08:07:02;;;;;;;8.93;4.53;;;10.20;99.90;;;;;;5041901;28;20476;-79
2023/12/27 08:09:31;;;;;;;21.73;5.50;;;10.20;99.90;;;;;;5040402;28;20569;-79
2023/12/27 08:11:58;;;;;;;24.03;5.23;;;10.10;99.90;;;;;;5041233;28;20522;-79
2023/12/27 08:14:25;;;;;;;9.27;4.00;;;9.90;99.90;;;;;;5043756;28;20480;-79
2023/12/27 08:16:53;;;;;;;23.17;4.70;;;9.80;99.90;;;;;;5061497;28;20574;-79
2023/12/27 08:19:20;;;;;;;15.30;4.30;;;9.80;99.90;;;;;;5057763;28;20993;-80
2023/12/27 08:21:47;;;;;;;6.73;4.17;;;9.90;99.90;;;;;;5043316;28;20483;-79
2023/12/27 08:24:14;;;;;;;9.03;5.03;;;9.90;99.90;;;;;;5049712;28;20908;-79
2023/12/27 08:26:42;;;;;;;14.60;6.10;;;9.90;99.90;;;;;;5048655;28;20503;-79
2023/12/27 08:29:10;;;;;;;12.00;6.07;;;;;;;;;;5042771;28;21013;-78
2023/12/27 08:31:36;;;;;;;8.50;5.37;;;9.70;99.90;;;;;;5060498;28;20575;-78
2023/12/27 08:34:04;;;;;;;12.40;6.63;;;9.70;99.90;;;;;;5045045;28;20538;-78
2023/12/27 08:36:32;;;;;;;8.60;6.43;;;9.70;99.90;;;;;;5043342;28;20478;-79
2023/12/27 08:38:58;;;;;;;10.93;6.10;;;9.80;99.90;;;;;;5056417;28;20538;-78
2023/12/27 08:41:26;;;;;;;9.00;6.03;;;9.90;99.90;;;;;;5042975;28;20563;-78
2023/12/27 08:43:55;;;;;;;8.47;4.80;;;;;;;;;;5047744;28;20594;-78
2023/12/27 08:46:22;;;;;;;10.10;4.80;;;9.90;99.90;;;;;;5047871;28;20563;-78
2023/12/27 08:48:50;;;;;;;8.90;4.60;;;9.80;99.90;;;;;;5040385;28;20472;-78
2023/12/27 08:51:17;;;;;;;19.07;6.27;;;9.80;99.90;;;;;;5044029;28;20476;-78
2023/12/27 08:53:43;;;;;;;7.93;5.27;;;9.70;99.90;;;;;;5049209;28;20515;-78
2023/12/27 08:56:10;;;;;;;8.93;4.23;;;9.60;99.90;;;;;;5046087;28;20467;-78
2023/12/27 08:58:37;;;;;;;8.27;5.60;;;9.60;99.90;;;;;;5043743;28;20934;-78
2023/12/27 09:01:05;;;;;;;9.13;4.50;;;9.60;99.90;;;;;;5057072;28;20563;-78
2023/12/27 09:03:33;;;;;;;9.10;4.70;;;9.60;99.90;;;;;;5044739;28;20502;-78
2023/12/27 09:06:00;;;;;;;9.00;3.50;;;9.60;99.90;;;;;;5028268;28;20483;-77
2023/12/27 09:08:27;;;;;;;16.33;5.03;;;9.60;99.90;;;;;;5043257;28;20537;-78
2023/12/27 09:10:54;;;;;;;9.30;3.97;;;9.60;99.90;;;;;;5053237;28;20927;-78
2023/12/27 09:13:21;;;;;;;6.30;4.40;;;9.60;99.90;;;;;;5052700;28;20478;-78
2023/12/27 09:15:48;;;;;;;16.97;5.27;;;9.60;99.90;;;;;;5060253;28;20671;-78
2023/12/27 09:18:16;;;;;;;7.27;4.20;;;;;;;;;;5059933;28;20546;-78
2023/12/27 09:20:43;;;;;;;7.87;5.53;;;9.50;99.90;;;;;;5060086;28;20589;-77
2023/12/27 09:23:10;;;;;;;10.17;4.13;;;9.60;99.90;;;;;;5060501;28;20490;-77
2023/12/27 09:25:37;;;;;;;19.87;5.10;;;9.80;99.90;;;;;;5058877;28;20577;-77
2023/12/27 09:28:04;;;;;;;5.30;3.77;;;9.80;99.90;;;;;;5058419;28;20560;-76
2023/12/27 09:30:31;;;;;;;3.77;3.47;;;9.90;99.90;;;;;;5059390;28;20961;-76
2023/12/27 09:32:58;;;;;;;6.03;3.77;;;9.90;99.90;;;;;;5058634;28;20536;-75
2023/12/27 09:35:26;;;;;;;13.40;3.93;;;;;;;;;;5058918;28;20566;-77
2023/12/27 09:37:53;;;;;;;7.53;4.17;;;10.00;99.90;;;;;;5056613;28;20921;-76
2023/12/27 09:40:21;;;;;;;5.73;4.30;;;9.90;99.90;;;;;;5059109;28;20857;-76
2023/12/27 09:42:50;;;;;;;12.73;4.23;;;10.00;99.90;;;;;;5059746;28;20494;-76
2023/12/27 09:45:20;;;;;;;12.63;3.03;;;10.10;99.90;;;;;;5059058;28;20558;-74
2023/12/27 09:47:53;;;;;;;6.03;3.30;;;10.20;99.90;;;;;;5060294;28;20910;-74
2023/12/27 09:50:20;;;;;;;13.90;4.67;;;10.30;99.90;;;;;;5057507;28;20515;-75
2023/12/27 09:52:49;;;;;;;12.43;4.93;;;10.40;99.90;;;;;;5059370;28;20904;-75
2023/12/27 09:55:15;;;;;;;10.60;4.63;;;10.30;99.90;;;;;;5060168;28;20760;-75
2023/12/27 09:57:43;;;;;;;9.10;4.80;;;10.40;99.90;;;;;;5060147;28;20554;-74
2023/12/27 10:00:12;;;;;;;8.20;4.43;;;10.50;99.90;;;;;;5046470;28;20550;-75
2023/12/27 10:02:42;;;;;;;8.67;3.97;;;10.60;99.90;;;;;;5057546;28;20486;-75
2023/12/27 10:05:16;;;;;;;7.07;4.30;;;10.50;99.90;;;;;;5055454;28;20659;-75
2023/12/27 10:07:44;;;;;;;8.50;3.93;;;10.50;99.90;;;;;;5052199;28;20523;-76
2023/12/27 10:10:12;;;;;;;7.30;4.60;;;10.50;99.90;;;;;;5049789;28;20571;-76
2023/12/27 10:12:40;;;;;;;15.43;3.80;;;10.70;99.90;;;;;;5047360;28;20584;-74
2023/12/27 10:15:08;;;;;;;13.80;5.33;;;10.90;99.90;;;;;;5033976;28;20529;-76
2023/12/27 10:17:35;;;;;;;9.83;4.73;;;10.90;99.90;;;;;;5041329;28;21120;-75
2023/12/27 10:20:02;;;;;;;6.27;4.23;;;11.00;99.90;;;;;;5040720;28;20511;-76
2023/12/27 10:22:30;;;;;;;11.67;5.87;;;10.90;99.90;;;;;;5038779;28;20839;-74
2023/12/27 10:24:57;;;;;;;6.47;3.77;;;10.70;99.90;;;;;;5039217;28;20876;-74
2023/12/27 10:27:30;;;;;;;23.73;5.87;;;10.60;99.90;;;;;;5034996;28;20549;-75
2023/12/27 10:29:59;;;;;;;5.60;3.13;;;10.60;99.90;;;;;;5037917;28;20513;-75
2023/12/27 10:32:27;;;;;;;9.97;3.43;;;10.50;99.90;;;;;;5038622;28;20986;-76
2023/12/27 10:34:54;;;;;;;13.57;5.00;;;10.40;99.90;;;;;;5035533;28;20499;-76
2023/12/27 10:37:21;;;;;;;20.60;5.10;;;10.40;99.90;;;;;;5039166;28;21092;-76
2023/12/27 10:39:48;;;;;;;9.70;4.00;;;10.20;99.90;;;;;;5039574;28;20488;-74
2023/12/27 10:42:16;;;;;;;4.10;2.50;;;10.30;99.90;;;;;;5040580;28;20496;-75
2023/12/27 10:44:46;;;;;;;6.27;3.30;;;10.40;99.90;;;;;;5040680;28;21361;-75
2023/12/27 10:47:17;;;;;;;7.00;3.10;;;10.30;99.90;;;;;;5047264;28;20481;-76
2023/12/27 10:49:46;;;;;;;4.57;3.07;;;10.40;99.90;;;;;;5027487;28;20438;-75
2023/12/27 10:52:13;;;;;;;6.90;3.93;;;10.40;99.90;;;;;;5049058;28;21184;-76
2023/12/27 10:54:44;;;;;;;9.13;2.73;;;10.40;99.90;;;;;;5046166;28;21045;-74
2023/12/27 10:57:18;;;;;;;8.13;3.67;;;10.40;99.90;;;;;;5041960;28;20503;-75
2023/12/27 10:59:47;;;;;;;14.67;3.87;;;10.20;99.90;;;;;;5034578;28;20478;-75
2023/12/27 11:02:14;;;;;;;15.20;4.30;;;10.20;99.90;;;;;;5036674;28;20566;-75
2023/12/27 11:04:43;;;;;;;8.20;3.20;;;10.10;99.90;;;;;;5039921;28;20487;-75
2023/12/27 11:07:12;;;;;;;5.40;3.00;;;10.30;99.90;;;;;;5031446;28;20575;-74
2023/12/27 11:09:41;;;;;;;10.90;2.97;;;10.30;99.90;;;;;;5037578;28;20529;-74
2023/12/27 11:12:09;;;;;;;4.70;2.00;;;10.30;99.90;;;;;;5039759;28;20480;-73
2023/12/27 11:14:37;;;;;;;6.67;2.60;;;10.30;99.90;;;;;;5034461;28;20591;-73
2023/12/27 11:17:09;;;;;;;9.17;2.90;;;10.30;99.90;;;;;;5049396;28;20582;-73
2023/12/27 11:19:37;;;;;;;14.93;3.33;;;10.40;99.90;;;;;;5046623;28;20475;-74
2023/12/27 11:22:04;;;;;;;5.10;1.60;;;10.40;99.90;;;;;;5045951;28;20499;-74
2023/12/27 11:24:32;;;;;;;8.20;1.60;;;10.70;99.90;;;;;;5053515;28;20946;-75
2023/12/27 11:27:00;;;;;;;4.03;1.97;;;10.60;99.90;;;;;;5055624;28;20483;-75
2023/12/27 11:29:29;;;;;;;8.20;1.90;;;;;;;;;;5043221;28;20537;-73
2023/12/27 11:31:57;;;;;;;3.07;1.77;;;10.50;99.90;;;;;;5060171;28;20572;-75
2023/12/27 11:34:26;;;;;;;4.60;2.17;;;10.60;99.90;;;;;;5049389;28;20511;-75
2023/12/27 11:36:53;;;;;;;12.10;2.03;;;10.60;99.90;;;;;;5041099;28;20944;-73
2023/12/27 11:39:20;;;;;;;2.57;2.20;;;10.70;99.90;;;;;;5039508;28;21319;-73
2023/12/27 11:41:48;;;;;;;7.37;2.53;;;10.70;99.90;;;;;;5042894;28;20504;-74
2023/12/27 11:44:17;;;;;;;2.47;1.50;;;10.70;99.90;;;;;;5040693;28;20545;-75
2023/12/27 11:46:44;;;;;;;2.70;1.70;;;10.70;99.90;;;;;;5039865;28;20483;-75
2023/12/27 11:49:19;;;;;;;3.10;2.03;;;10.80;99.90;;;;;;5051926;28;20559;-75
2023/12/27 11:51:47;;;;;;;6.40;1.77;;;11.00;99.90;;;;;;5050685;28;20490;-75
2023/12/27 11:54:22;;;;;;;5.30;2.20;;;11.10;99.90;;;;;;5060113;28;20574;-75
2023/12/27 11:56:49;;;;;;;19.63;3.20;;;11.10;99.90;;;;;;5049624;28;20550;-75
2023/12/27 11:59:16;;;;;;;2.63;1.87;;;11.00;99.90;;;;;;5057569;28;20525;-74
2023/12/27 12:01:43;;;;;;;6.07;2.00;;;11.00;99.90;;;;;;5060724;28;21078;-74
2023/12/27 12:04:27;;;;;;;12.03;3.10;;;10.90;99.90;;;;;;5056645;28;20514;-75
2023/12/27 12:07:34;;;;;;;6.37;2.60;;;10.90;99.90;;;;;;5044485;28;20558;-75
2023/12/27 12:10:01;;;;;;;4.33;2.40;;;10.90;99.90;;;;;;5060430;28;20495;-75
2023/12/27 12:12:29;;;;;;;6.33;2.97;;;10.90;99.90;;;;;;5061594;28;20514;-75
2023/12/27 12:14:57;;;;;;;4.87;2.30;;;10.80;99.90;;;;;;5059565;28;20651;-74
2023/12/27 12:17:24;;;;;;;12.63;3.10;;;10.70;99.90;;;;;;5061037;28;21152;-74
2023/12/27 12:19:51;;;;;;;2.63;1.83;;;10.60;99.90;;;;;;5061301;28;20477;-74
2023/12/27 12:22:20;;;;;;;5.20;2.47;;;10.60;99.90;;;;;;5062237;28;20902;-74
2023/12/27 12:24:47;;;;;;;6.73;2.47;;;;;;;;;;5060530;28;20482;-74
2023/12/27 12:27:15;;;;;;;5.30;2.33;;;10.50;99.90;;;;;;5058373;28;20470;-75
2023/12/27 12:29:43;;;;;;;4.10;1.83;;;10.60;99.90;;;;;;5060570;28;20483;-75
2023/12/27 12:32:13;;;;;;;7.80;2.30;;;10.70;99.90;;;;;;5059920;28;20545;-75
2023/12/27 12:34:40;;;;;;;4.87;2.30;;;10.70;99.90;;;;;;5060356;28;20494;-74
2023/12/27 12:37:07;;;;;;;3.47;2.77;;;10.80;99.90;;;;;;5061526;28;20549;-74
2023/12/27 12:39:35;;;;;;;6.40;2.33;;;11.00;99.90;;;;;;5060640;28;20565;-75
2023/12/27 12:42:02;;;;;;;3.10;2.30;;;10.90;99.90;;;;;;5060201;28;20892;-76
2023/12/27 12:44:31;;;;;;;5.20;3.20;;;10.80;99.90;;;;;;5056729;28;20491;-76
2023/12/27 12:46:58;;;;;;;6.37;3.93;;;10.80;99.90;;;;;;5060908;28;20487;-73
2023/12/27 12:49:26;;;;;;;4.83;3.33;;;10.60;99.90;;;;;;5059871;28;20558;-75
2023/12/27 12:51:53;;;;;;;19.87;5.00;;;10.50;99.90;;;;;;5061745;28;20562;-73